Time;durP1;ratioP1;P1;durP2;ratioP2;P2;SDS_P1;SDS_P2;PMS_P1;PMS_P2;Temp;Humidity;BMP_temperature;BMP_pressure;BME280_temperature;BME280_humidity;BME280_pressure;Samples;Min_cycle;Max_cycle;Signal;HPM_P1;HPM_P2
2023/08/15 00:00:28;;;;;;;11.20;9.50;;;;;;;23.98;63.61;100360.64;102983;1259;97815;-65
2023/08/15 00:03:15;;;;;;;13.70;9.80;;;;;;;23.94;63.83;100363.45;102936;1259;111836;-64
2023/08/15 00:05:43;;;;;;;12.60;9.70;;;;;;;23.91;63.85;100363.75;102925;1261;107718;-65
2023/08/15 00:08:10;;;;;;;10.40;9.40;;;;;;;23.89;63.87;100366.98;103434;1263;138036;-64
2023/08/15 00:10:37;;;;;;;13.20;9.20;;;;;;;23.86;63.87;100364.38;102934;1262;109563;-65
2023/08/15 00:13:04;;;;;;;11.80;9.20;;;;;;;23.83;63.85;100367.62;102714;1259;138876;-64
2023/08/15 00:15:32;;;;;;;13.20;9.90;;;;;;;23.80;63.91;100365.70;104277;1259;111673;-64
2023/08/15 00:17:59;;;;;;;15.40;9.80;;;;;;;23.78;63.96;100366.79;103326;1263;107979;-65
2023/08/15 00:20:26;;;;;;;15.90;8.90;;;;;;;23.75;63.96;100367.59;102852;1259;138968;-63
2023/08/15 00:22:53;;;;;;;14.30;10.40;;;;;;;23.72;63.97;100360.20;102981;1263;108325;-64
2023/08/15 00:25:20;;;;;;;10.50;8.90;;;;;;;23.70;64.29;100360.77;102838;1259;139683;-65
2023/08/15 00:27:47;;;;;;;14.30;10.20;;;;;;;23.68;64.24;100359.11;102961;1265;111851;-62
2023/08/15 00:30:15;;;;;;;12.00;10.20;;;;;;;23.64;64.64;100358.05;102884;1259;107514;-63
2023/08/15 00:32:42;;;;;;;13.00;9.40;;;;;;;23.58;64.92;100358.58;102866;1259;138912;-64
2023/08/15 00:35:10;;;;;;;11.10;8.80;;;;;;;23.53;64.94;100352.39;102954;1259;107390;-63
2023/08/15 00:37:37;;;;;;;11.10;9.90;;;;;;;23.50;64.82;100347.32;103729;1259;138682;-64
2023/08/15 00:40:06;;;;;;;21.60;9.70;;;;;;;23.48;65.09;100351.02;102787;1258;111679;-63
2023/08/15 00:42:32;;;;;;;13.50;10.40;;;;;;;23.43;65.50;100353.81;104259;1259;107705;-65
2023/08/15 00:45:00;;;;;;;12.00;9.80;;;;;;;23.37;65.41;100354.11;102785;1259;139369;-64
2023/08/15 00:47:29;;;;;;;14.20;9.80;;;;;;;23.35;65.63;100355.75;102880;1263;109769;-64
2023/08/15 00:49:56;;;;;;;13.80;10.30;;;;;;;23.31;65.84;100356.91;103029;1259;138964;-64
2023/08/15 00:52:23;;;;;;;13.20;9.10;;;;;;;23.28;65.76;100357.36;102876;1263;111918;-64
2023/08/15 00:54:52;;;;;;;15.90;10.50;;;;;;;23.24;65.96;100359.48;102787;1259;139267;-64
2023/08/15 00:57:21;;;;;;;14.20;10.40;;;;;;;23.19;66.09;100356.46;102953;1259;97724;-63
2023/08/15 00:59:49;;;;;;;18.30;10.40;;;;;;;23.16;66.23;100355.00;102805;1264;109110;-63
2023/08/15 01:02:16;;;;;;;11.20;9.90;;;;;;;23.11;66.31;100358.03;102725;1263;139010;-63
2023/08/15 01:04:44;;;;;;;14.20;9.80;;;;;;;23.06;66.68;100360.06;102910;1259;111378;-63
2023/08/15 01:07:12;;;;;;;15.90;10.50;;;;;;;23.03;66.89;100360.55;103044;1263;139454;-63
2023/08/15 01:09:41;;;;;;;13.10;10.60;;;;;;;22.98;67.04;100358.05;102940;1259;98344;-63
2023/08/15 01:12:19;;;;;;;16.90;9.90;;;;;;;22.96;67.17;100357.48;102908;1263;109265;-63
2023/08/15 01:14:51;;;;;;;14.40;10.10;;;;;;;22.94;67.13;100360.02;102847;1259;139333;-63
2023/08/15 01:17:25;;;;;;;15.60;9.70;;;;;;;22.91;67.40;100357.60;103045;1259;111718;-63
2023/08/15 01:19:55;;;;;;;14.10;9.90;;;;;;;22.87;67.29;100357.68;102810;1259;139039;-63
2023/08/15 01:22:29;;;;;;;17.90;10.10;;;;;;;22.85;67.24;100358.22;102959;1259;97771;-63
2023/08/15 01:24:57;;;;;;;16.40;9.90;;;;;;;22.83;67.61;100358.04;102874;1264;138947;-63
2023/08/15 01:27:24;;;;;;;19.70;11.20;;;;;;;22.81;67.78;100356.42;102760;1264;97734;-63
2023/08/15 01:29:50;;;;;;;13.00;10.70;;;;;;;22.78;68.02;100363.01;102822;1264;110886;-64
2023/08/15 01:32:27;;;;;;;14.20;10.70;;;;;;;22.73;68.32;100356.89;102820;1259;139121;-64
2023/08/15 01:35:01;;;;;;;13.70;10.10;;;;;;;22.69;68.32;100358.45;103168;1259;97831;-63
2023/08/15 01:37:31;;;;;;;12.50;10.70;;;;;;;22.65;68.47;100353.31;102811;1259;139313;-64
2023/08/15 01:40:02;;;;;;;14.80;11.30;;;;;;;22.61;68.64;100357.64;102970;1260;97894;-64
2023/08/15 01:42:31;;;;;;;13.20;9.80;;;;;;;22.59;68.73;100360.70;103009;1262;110776;-62
2023/08/15 01:45:01;;;;;;;11.70;10.10;;;;;;;22.56;68.75;100354.04;102758;1259;138620;-62
2023/08/15 01:47:32;;;;;;;12.70;9.60;;;;;;;22.52;69.17;100356.10;102964;1259;98332;-63
2023/08/15 01:49:59;;;;;;;12.40;10.30;;;;;;;22.50;68.97;100354.52;103205;1259;138633;-63
2023/08/15 01:52:26;;;;;;;11.20;9.90;;;;;;;22.48;68.84;100352.70;102930;1261;97808;-63
2023/08/15 01:54:53;;;;;;;12.60;10.60;;;;;;;22.47;68.87;100353.73;102878;1259;138719;-63
2023/08/15 01:57:21;;;;;;;12.50;10.00;;;;;;;22.46;69.19;100356.45;102985;1259;108341;-63
2023/08/15 01:59:48;;;;;;;12.70;10.00;;;;;;;22.44;69.31;100357.84;102927;1259;97812;-64
2023/08/15 02:02:16;;;;;;;10.90;9.80;;;;;;;22.41;69.33;100357.30;102661;1259;138854;-63
2023/08/15 02:04:42;;;;;;;13.80;10.50;;;;;;;22.38;69.22;100361.64;102949;1259;97774;-64
2023/08/15 02:07:09;;;;;;;13.30;9.90;;;;;;;22.35;69.65;100363.31;102726;1259;139301;-63
2023/08/15 02:09:37;;;;;;;12.30;10.30;;;;;;;22.33;69.72;100364.77;102947;1259;109259;-63
2023/08/15 02:12:04;;;;;;;12.70;10.50;;;;;;;22.29;69.68;100368.26;102969;1265;97902;-63
2023/08/15 02:14:31;;;;;;;11.30;10.10;;;;;;;22.26;69.62;100363.52;102835;1259;139275;-63
2023/08/15 02:16:58;;;;;;;13.70;10.90;;;;;;;22.23;69.72;100365.88;102716;1259;97857;-63
2023/08/15 02:19:25;;;;;;;15.30;11.30;;;;;;;22.20;69.97;100367.52;102819;1262;139115;-63
2023/08/15 02:21:52;;;;;;;14.50;10.50;;;;;;;22.17;70.13;100367.77;102942;1259;107750;-63
2023/08/15 02:24:19;;;;;;;11.70;10.50;;;;;;;22.15;70.29;100370.95;102897;1259;98430;-63
2023/08/15 02:26:46;;;;;;;14.70;10.70;;;;;;;22.12;70.48;100370.84;102598;1258;138947;-63
2023/08/15 02:29:16;;;;;;;12.00;10.40;;;;;;;22.09;71.01;100367.89;102824;1265;97788;-63
2023/08/15 02:31:47;;;;;;;15.50;11.80;;;;;;;22.06;70.80;100367.05;102808;1259;139211;-62
2023/08/15 02:34:16;;;;;;;16.20;11.20;;;;;;;22.03;70.75;100366.32;102703;1259;108553;-62
2023/08/15 02:36:46;;;;;;;14.10;11.10;;;;;;;22.01;71.14;100369.52;102921;1265;98128;-63
2023/08/15 02:39:13;;;;;;;15.80;10.90;;;;;;;21.99;71.00;100373.94;102847;1259;108913;-62
2023/08/15 02:41:40;;;;;;;12.50;10.90;;;;;;;21.97;71.00;100369.15;102859;1265;97789;-63
2023/08/15 02:44:08;;;;;;;18.60;11.40;;;;;;;21.95;71.14;100370.52;102855;1259;138245;-63
2023/08/15 02:46:35;;;;;;;14.50;11.20;;;;;;;21.93;71.45;100372.45;104118;1263;108393;-63
2023/08/15 02:49:02;;;;;;;13.40;10.60;;;;;;;21.91;71.44;100375.47;102800;1259;139681;-63
2023/08/15 02:51:29;;;;;;;14.80;11.60;;;;;;;21.89;71.40;100375.92;102912;1259;107405;-63
2023/08/15 02:53:56;;;;;;;13.60;11.20;;;;;;;21.88;71.56;100375.69;102984;1259;97789;-63
2023/08/15 02:56:23;;;;;;;13.20;11.40;;;;;;;21.87;71.48;100379.11;102673;1260;138842;-63
2023/08/15 02:58:52;;;;;;;13.70;11.30;;;;;;;21.85;71.56;100378.39;102804;1264;107134;-63
2023/08/15 03:01:19;;;;;;;15.90;11.50;;;;;;;21.82;71.88;100378.43;102676;1259;139053;-63
2023/08/15 03:03:46;;;;;;;14.80;11.40;;;;;;;21.80;71.97;100379.84;102798;1264;108216;-63
2023/08/15 03:06:13;;;;;;;13.10;11.10;;;;;;;21.78;72.11;100381.09;103244;1262;97868;-62
2023/08/15 03:08:40;;;;;;;12.80;11.00;;;;;;;21.75;72.45;100378.63;102750;1259;139116;-63
2023/08/15 03:11:07;;;;;;;16.60;11.10;;;;;;;21.72;72.78;100380.08;102940;1263;107821;-63
2023/08/15 03:13:34;;;;;;;13.60;11.10;;;;;;;21.69;72.82;100378.19;102910;1259;138990;-63
2023/08/15 03:16:01;;;;;;;13.70;11.30;;;;;;;21.66;72.98;100378.56;102940;1259;108333;-62
2023/08/15 03:18:29;;;;;;;13.30;11.00;;;;;;;21.64;73.34;100381.39;102967;1263;97942;-63
2023/08/15 03:21:00;;;;;;;14.30;11.90;;;;;;;21.62;73.85;100382.93;102836;1265;138726;-63
2023/08/15 03:23:29;;;;;;;13.20;11.40;;;;;;;21.60;73.61;100384.17;102958;1259;107658;-64
2023/08/15 03:26:01;;;;;;;13.80;11.60;;;;;;;21.59;73.47;100383.54;102868;1263;139082;-64
2023/08/15 03:28:31;;;;;;;15.70;12.10;;;;;;;21.59;73.75;100387.48;102811;1262;108034;-64
2023/08/15 03:31:03;;;;;;;13.10;11.20;;;;;;;21.57;74.01;100390.98;102826;1259;139020;-63
2023/08/15 03:33:31;;;;;;;12.40;11.10;;;;;;;21.56;73.91;100394.42;102965;1262;110110;-63
2023/08/15 03:35:58;;;;;;;13.10;11.70;;;;;;;21.55;74.19;100401.00;103083;1261;107244;-63
2023/08/15 03:38:26;;;;;;;17.00;11.30;;;;;;;21.55;73.97;100405.77;103765;1259;138870;-63
2023/08/15 03:41:03;;;;;;;16.20;12.00;;;;;;;21.55;73.81;100401.91;104286;1259;107116;-64
2023/08/15 03:43:30;;;;;;;15.10;12.10;;;;;;;21.55;73.99;100401.52;104184;1259;139415;-64
2023/08/15 03:45:57;;;;;;;14.90;11.90;;;;;;;21.57;74.08;100403.71;104166;1259;110377;-63
2023/08/15 03:48:24;;;;;;;12.50;11.20;;;;;;;21.58;74.12;100406.61;103767;1260;107475;-64
2023/08/15 03:50:52;;;;;;;17.10;11.80;;;;;;;21.60;74.13;100404.88;102882;1259;138923;-63
2023/08/15 03:53:19;;;;;;;13.80;11.10;;;;;;;21.61;74.25;100407.44;102923;1260;108223;-63
2023/08/15 03:55:49;;;;;;;16.50;11.30;;;;;;;21.62;73.87;100407.88;102828;1261;138850;-63
2023/08/15 03:58:16;;;;;;;14.70;11.50;;;;;;;21.64;74.07;100406.51;102855;1259;112233;-63
2023/08/15 04:00:43;;;;;;;14.90;11.20;;;;;;;21.65;73.95;100403.44;103736;1263;108306;-63
2023/08/15 04:03:11;;;;;;;13.10;11.20;;;;;;;21.67;73.98;100407.55;102850;1264;97725;-63
2023/08/15 04:05:39;;;;;;;13.50;11.50;;;;;;;21.68;73.89;100413.13;102960;1263;108417;-62
2023/08/15 04:08:08;;;;;;;16.90;11.70;;;;;;;21.68;74.20;100418.39;102676;1265;139117;-63
2023/08/15 04:10:39;;;;;;;12.50;11.20;;;;;;;21.69;74.27;100419.55;103202;1262;112589;-62
2023/08/15 04:13:07;;;;;;;15.00;11.50;;;;;;;21.72;73.88;100419.02;102727;1260;139042;-62
2023/08/15 04:15:34;;;;;;;14.90;11.70;;;;;;;21.74;73.91;100415.67;102941;1259;98346;-62
2023/08/15 04:18:02;;;;;;;13.00;11.40;;;;;;;21.77;73.87;100419.52;102945;1263;108450;-63
2023/08/15 04:20:29;;;;;;;13.80;10.80;;;;;;;21.80;74.33;100422.30;102835;1263;138909;-63
2023/08/15 04:22:56;;;;;;;12.10;10.90;;;;;;;21.82;74.12;100423.73;102906;1259;112176;-63
2023/08/15 04:25:25;;;;;;;13.30;11.20;;;;;;;21.85;74.39;100423.84;102841;1259;139686;-63
2023/08/15 04:27:55;;;;;;;16.30;11.30;;;;;;;21.89;74.05;100428.70;102911;1260;97901;-63
2023/08/15 04:30:22;;;;;;;13.60;11.30;;;;;;;21.93;73.90;100430.16;102801;1263;108881;-62
2023/08/15 04:32:49;;;;;;;13.40;11.70;;;;;;;21.99;74.00;100428.80;102686;1259;138881;-63
2023/08/15 04:35:17;;;;;;;13.30;11.50;;;;;;;22.05;73.82;100435.63;103006;1260;112421;-63
2023/08/15 04:37:44;;;;;;;18.30;11.70;;;;;;;22.11;73.68;100437.65;102816;1261;139026;-63
2023/08/15 04:40:13;;;;;;;18.00;11.60;;;;;;;22.20;73.29;100439.77;103019;1261;98432;-63
2023/08/15 04:42:42;;;;;;;15.70;11.20;;;;;;;22.30;73.17;100439.39;103391;1260;107933;-63
2023/08/15 04:45:10;;;;;;;14.70;11.40;;;;;;;22.40;72.81;100439.50;102902;1260;138786;-63
2023/08/15 04:47:37;;;;;;;15.40;10.70;;;;;;;22.53;72.61;100438.45;103520;1259;111258;-63
2023/08/15 04:50:07;;;;;;;16.50;10.20;;;;;;;22.64;72.19;100437.92;102803;1264;138875;-63
2023/08/15 04:52:34;;;;;;;11.40;10.20;;;;;;;22.77;71.92;100436.53;103507;1263;98302;-64
2023/08/15 04:55:01;;;;;;;14.20;10.10;;;;;;;23.26;71.65;100431.86;102826;1263;139084;-64
2023/08/15 04:57:28;;;;;;;16.60;9.30;;;;;;;24.41;69.09;100428.17;103238;1262;97711;-65
2023/08/15 04:59:55;;;;;;;13.80;9.10;;;;;;;25.57;65.79;100429.18;102776;1260;113004;-64
2023/08/15 05:02:22;;;;;;;10.70;8.50;;;;;;;26.66;62.85;100431.02;102682;1262;138421;-64
2023/08/15 05:04:49;;;;;;;9.00;8.10;;;;;;;27.75;61.36;100426.48;102921;1264;97820;-64
2023/08/15 05:07:16;;;;;;;11.30;7.90;;;;;;;28.81;58.76;100425.80;102877;1264;137767;-64
2023/08/15 05:09:44;;;;;;;11.70;8.10;;;;;;;29.83;55.39;100426.14;104201;1259;96405;-65
2023/08/15 05:12:12;;;;;;;9.20;7.90;;;;;;;30.66;53.27;100424.08;103587;1260;111595;-64
2023/08/15 05:14:39;;;;;;;10.90;7.60;;;;;;;31.39;49.98;100423.25;102762;1263;137929;-64
2023/08/15 05:17:06;;;;;;;11.60;7.30;;;;;;;31.98;48.87;100426.95;103016;1261;97788;-64
2023/08/15 05:19:33;;;;;;;12.30;7.70;;;;;;;32.63;47.08;100424.17;102656;1263;138030;-65
2023/08/15 05:22:00;;;;;;;12.10;7.50;;;;;;;33.15;45.57;100423.29;102856;1265;97840;-65
2023/08/15 05:24:28;;;;;;;10.60;7.10;;;;;;;33.61;44.13;100425.66;103065;1263;102721;-65
2023/08/15 05:26:55;;;;;;;8.00;7.00;;;;;;;34.00;42.86;100423.68;102839;1264;139066;-64
2023/08/15 05:29:22;;;;;;;8.30;7.20;;;;;;;34.41;41.72;100423.42;102818;1264;97935;-64
2023/08/15 05:31:49;;;;;;;9.80;6.90;;;;;;;34.87;41.19;100423.65;103200;1261;137699;-65
2023/08/15 05:34:16;;;;;;;8.50;6.40;;;;;;;35.41;40.63;100425.52;102803;1259;97828;-64
2023/08/15 05:36:43;;;;;;;10.50;6.60;;;;;;;36.07;40.02;100419.65;102826;1261;103977;-64
2023/08/15 05:39:10;;;;;;;7.00;6.20;;;;;;;36.79;39.23;100420.80;102763;1261;109524;-65
2023/08/15 05:41:37;;;;;;;8.30;6.10;;;;;;;37.57;38.24;100423.62;102951;1263;97817;-64
2023/08/15 05:44:05;;;;;;;6.80;6.10;;;;;;;38.23;36.56;100423.35;102743;1260;137734;-65
2023/08/15 05:46:32;;;;;;;9.80;6.10;;;;;;;38.77;35.68;100423.76;104353;1262;96103;-65
2023/08/15 05:48:59;;;;;;;10.00;5.70;;;;;;;39.35;34.99;100426.70;104202;1263;138314;-67
2023/08/15 05:51:26;;;;;;;11.30;5.90;;;;;;;39.85;33.97;100424.73;104249;1263;99352;-66
2023/08/15 05:53:52;;;;;;;9.20;5.90;;;;;;;40.33;32.76;100422.82;104293;1263;95694;-66
2023/08/15 05:56:20;;;;;;;9.30;5.90;;;;;;;40.67;31.52;100423.52;104159;1261;138459;-66
2023/08/15 05:58:47;;;;;;;9.80;5.70;;;;;;;40.67;30.21;100420.11;104268;1258;95888;-66
2023/08/15 06:01:13;;;;;;;7.00;5.50;;;;;;;40.54;30.18;100422.86;103927;1261;137837;-68
2023/08/15 06:03:41;;;;;;;10.00;5.30;;;;;;;40.52;29.90;100419.96;102891;1263;99561;-66
2023/08/15 06:06:18;;;;;;;6.90;5.70;;;;;;;40.61;29.90;100415.35;102937;1261;99235;-68
2023/08/15 06:08:45;;;;;;;6.20;5.00;;;;;;;40.85;29.81;100419.45;102878;1261;137802;-67
2023/08/15 06:11:15;;;;;;;10.30;5.40;;;;;;;41.14;29.51;100420.76;102935;1263;97672;-68
2023/08/15 06:13:42;;;;;;;10.80;5.40;;;;;;;41.58;29.57;100420.26;102866;1263;137926;-68
2023/08/15 06:16:09;;;;;;;5.90;5.40;;;;;;;42.27;29.18;100419.45;102928;1263;100017;-68
2023/08/15 06:18:39;;;;;;;10.10;5.00;;;;;;;42.92;28.55;100421.74;103011;1260;97907;-67
2023/08/15 06:21:06;;;;;;;9.50;4.90;;;;;;;43.60;28.11;100425.00;102809;1263;137746;-67
2023/08/15 06:23:33;;;;;;;7.10;5.20;;;;;;;44.18;27.19;100426.23;102956;1263;97768;-66
2023/08/15 06:26:01;;;;;;;6.80;4.80;;;;;;;44.60;26.31;100424.70;102840;1263;138267;-67
2023/08/15 06:28:27;;;;;;;8.00;4.60;;;;;;;44.95;25.54;100425.55;102894;1261;99962;-66
2023/08/15 06:30:54;;;;;;;8.50;4.80;;;;;;;45.14;24.74;100422.17;102787;1261;137763;-65
2023/08/15 06:33:21;;;;;;;7.00;4.80;;;;;;;45.09;24.29;100424.63;102983;1259;108374;-66
2023/08/15 06:35:48;;;;;;;7.60;4.70;;;;;;;45.07;24.53;100423.77;102970;1263;97948;-66
2023/08/15 06:38:15;;;;;;;9.70;4.60;;;;;;;45.24;24.34;100428.48;102830;1259;137674;-65
2023/08/15 06:40:42;;;;;;;9.20;5.10;;;;;;;45.36;24.16;100431.41;102825;1263;100865;-64
2023/08/15 06:43:09;;;;;;;9.10;5.10;;;;;;;45.43;23.35;100430.69;102845;1263;137961;-66
2023/08/15 06:45:37;;;;;;;6.70;4.70;;;;;;;45.34;22.90;100433.39;102991;1263;99986;-66
2023/08/15 06:48:05;;;;;;;8.80;4.80;;;;;;;45.29;23.19;100431.86;102959;1261;97714;-65
2023/08/15 06:50:32;;;;;;;9.60;4.70;;;;;;;45.31;22.78;100429.20;103144;1263;138323;-66
2023/08/15 06:53:00;;;;;;;9.80;4.30;;;;;;;45.21;22.64;100429.94;102940;1259;99966;-66
2023/08/15 06:55:27;;;;;;;6.70;4.50;;;;;;;45.18;22.24;100430.48;102826;1263;138391;-66
2023/08/15 06:57:55;;;;;;;7.80;4.20;;;;;;;45.18;22.38;100436.20;102974;1263;101399;-65
2023/08/15 07:00:22;;;;;;;7.20;4.60;;;;;;;45.26;22.37;100439.00;102823;1261;97786;-66
2023/08/15 07:02:50;;;;;;;6.10;4.40;;;;;;;45.41;22.50;100439.13;102673;1261;137916;-67
2023/08/15 07:05:18;;;;;;;7.50;4.60;;;;;;;45.62;22.40;100438.20;102934;1260;100285;-65
2023/08/15 07:07:45;;;;;;;5.50;4.10;;;;;;;45.81;21.67;100438.52;102836;1264;137977;-76
2023/08/15 07:10:13;;;;;;;6.90;3.90;;;;;;;45.84;21.76;100439.67;102873;1260;107918;-79
2023/08/15 07:12:39;;;;;;;6.10;3.70;;;;;;;46.20;21.78;100439.98;102891;1263;97703;-78
2023/08/15 07:15:09;;;;;;;6.70;3.80;;;;;;;46.67;20.99;100439.94;102814;1263;138991;-80
2023/08/15 07:17:36;;;;;;;7.30;3.70;;;;;;;47.08;21.16;100443.43;103064;1262;99412;-80
2023/08/15 07:20:04;;;;;;;9.00;4.00;;;;;;;47.49;20.65;100443.81;102699;1261;137610;-78
2023/08/15 07:22:31;;;;;;;4.70;4.00;;;;;;;47.61;20.16;100446.71;102771;1264;109046;-79
2023/08/15 07:24:58;;;;;;;8.50;3.60;;;;;;;47.86;20.02;100441.23;102790;1264;138500;-78
2023/08/15 07:27:25;;;;;;;7.90;3.90;;;;;;;48.12;19.53;100444.32;102923;1261;102549;-77
2023/08/15 07:29:52;;;;;;;4.60;3.70;;;;;;;48.29;19.16;100443.05;102862;1263;99036;-79
2023/08/15 07:32:19;;;;;;;7.70;3.40;;;;;;;48.36;18.76;100443.85;102789;1263;138120;-76
2023/08/15 07:34:47;;;;;;;7.00;3.20;;;;;;;48.50;18.56;100440.95;102928;1260;107963;-76
2023/08/15 07:37:14;;;;;;;6.20;3.10;;;;;;;48.61;18.55;100441.04;102797;1260;138341;-75
2023/08/15 07:39:41;;;;;;;6.80;3.20;;;;;;;48.75;18.26;100434.94;102942;1261;102246;-75
2023/08/15 07:42:08;;;;;;;4.90;3.30;;;;;;;48.88;17.64;100440.17;102850;1263;100327;-73
2023/08/15 07:44:35;;;;;;;5.30;3.40;;;;;;;48.85;17.52;100441.71;102737;1263;138000;-75
2023/08/15 07:47:02;;;;;;;6.90;3.00;;;;;;;48.83;17.33;100442.46;102891;1257;98956;-71
2023/08/15 07:49:30;;;;;;;5.60;3.00;;;;;;;48.83;17.21;100445.95;102733;1264;137785;-72
2023/08/15 07:51:58;;;;;;;7.50;3.50;;;;;;;48.69;17.42;100444.16;102898;1263;103724;-72
2023/08/15 07:54:25;;;;;;;8.90;3.40;;;;;;;48.66;17.60;100440.05;102943;1263;100319;-72
2023/08/15 07:56:52;;;;;;;4.40;3.10;;;;;;;48.82;17.59;100431.85;102862;1260;137746;-76
2023/08/15 07:59:20;;;;;;;6.30;3.30;;;;;;;49.14;17.69;100434.65;102871;1263;100559;-75
2023/08/15 08:01:47;;;;;;;6.20;3.30;;;;;;;49.35;17.17;100432.56;102766;1263;137763;-74
2023/08/15 08:04:14;;;;;;;5.00;3.20;;;;;;;49.18;16.73;100433.23;102846;1260;102506;-75
2023/08/15 08:06:41;;;;;;;5.20;3.10;;;;;;;49.01;16.62;100432.82;102783;1260;99393;-75
2023/08/15 08:09:08;;;;;;;4.80;3.40;;;;;;;48.99;16.55;100426.30;102734;1263;137645;-75
2023/08/15 08:11:40;;;;;;;6.60;2.70;;;;;;;48.98;16.84;100427.25;102779;1263;99080;-75
2023/08/15 08:14:09;;;;;;;6.10;3.40;;;;;;;49.11;17.07;100427.51;102565;1263;139031;-75
2023/08/15 08:16:36;;;;;;;8.40;2.90;;;;;;;49.27;16.34;100420.71;102662;1263;102477;-75
2023/08/15 08:19:04;;;;;;;8.00;2.90;;;;;;;49.15;16.04;100424.45;102771;1263;99050;-74
2023/08/15 08:21:46;;;;;;;6.60;2.80;;;;;;;48.96;16.13;100427.52;102729;1263;137679;-75
2023/08/15 08:24:14;;;;;;;6.20;3.00;;;;;;;48.62;15.67;100426.08;102718;1260;100072;-74
2023/08/15 08:26:43;;;;;;;4.60;3.00;;;;;;;48.32;15.97;100428.34;102826;1260;138182;-75
2023/08/15 08:29:12;;;;;;;8.30;2.90;;;;;;;48.10;16.21;100428.47;102721;1263;103779;-74
2023/08/15 08:31:42;;;;;;;9.20;2.90;;;;;;;47.95;16.07;100426.48;102757;1263;100456;-74
2023/08/15 08:34:13;;;;;;;5.20;2.30;;;;;;;47.73;16.04;100425.35;102753;1264;138152;-74
2023/08/15 08:36:41;;;;;;;5.90;3.40;;;;;;;47.17;16.06;100418.17;102840;1260;99241;-75
2023/08/15 08:39:30;;;;;;;5.60;2.90;;;;;;;46.51;16.43;100417.66;102430;1264;442881;-74
2023/08/15 08:42:04;;;;;;;9.70;3.20;;;;;;;46.33;16.96;100417.52;103042;1263;103622;-74
2023/08/15 08:44:37;;;;;;;4.60;3.10;;;;;;;46.26;17.11;100414.45;102703;1261;138149;-74
2023/08/15 08:47:08;;;;;;;5.20;3.10;;;;;;;46.01;17.12;100408.11;102909;1260;97795;-75
2023/08/15 08:49:41;;;;;;;5.70;3.30;;;;;;;45.77;17.26;100403.14;102833;1259;98795;-74
2023/08/15 08:52:11;;;;;;;5.40;3.20;;;;;;;45.79;17.54;100402.81;102712;1260;137665;-74
2023/08/15 08:54:38;;;;;;;4.30;3.00;;;;;;;45.66;17.79;100398.08;102745;1263;103803;-76
2023/08/15 08:57:25;;;;;;;4.10;3.40;;;;;;;45.43;18.03;100392.08;102639;1260;137842;-80
2023/08/15 08:59:56;;;;;;;6.20;3.60;;;;;;;45.11;18.04;100395.96;102671;1259;97952;-78
2023/08/15 09:02:24;;;;;;;6.90;3.30;;;;;;;44.78;18.26;100395.23;102675;1259;138529;-78
2023/08/15 09:04:53;;;;;;;4.50;3.90;;;;;;;44.50;18.71;100393.69;102740;1263;97804;-77
2023/08/15 09:07:21;;;;;;;8.50;4.30;;;;;;;44.09;18.98;100391.50;102865;1259;103388;-77
2023/08/15 09:09:49;;;;;;;7.00;3.60;;;;;;;43.74;19.55;100393.36;102829;1259;137815;-76
2023/08/15 09:12:33;;;;;;;9.10;3.90;;;;;;;43.40;19.86;100392.27;102989;1261;97784;-76
2023/08/15 09:15:00;;;;;;;5.90;4.00;;;;;;;43.09;20.44;100391.58;102793;1260;137732;-78
2023/08/15 09:17:27;;;;;;;9.70;4.10;;;;;;;42.86;20.53;100389.84;103008;1263;97843;-79
2023/08/15 09:19:55;;;;;;;7.30;4.30;;;;;;;42.59;20.70;100390.48;103014;1260;103420;-79
2023/08/15 09:22:24;;;;;;;5.00;3.80;;;;;;;42.10;21.04;100390.80;102875;1259;137641;-80
2023/08/15 09:24:51;;;;;;;4.20;3.60;;;;;;;41.78;21.59;100389.52;103013;1260;97650;-78
2023/08/15 09:27:19;;;;;;;7.50;4.10;;;;;;;41.68;21.73;100386.38;102795;1259;137565;-71
2023/08/15 09:29:46;;;;;;;9.50;3.80;;;;;;;41.50;21.85;100385.67;102930;1264;97775;-74
2023/08/15 09:32:14;;;;;;;6.60;4.00;;;;;;;41.09;21.85;100382.98;102863;1259;141060;-73
2023/08/15 09:34:41;;;;;;;10.10;4.70;;;;;;;40.83;22.01;100382.85;102773;1260;100296;-76
2023/08/15 09:37:09;;;;;;;9.20;3.90;;;;;;;40.40;22.31;100386.63;102880;1264;97791;-77
2023/08/15 09:39:36;;;;;;;7.40;3.70;;;;;;;39.86;22.67;100382.40;102794;1259;137577;-75
2023/08/15 09:42:06;;;;;;;6.90;3.70;;;;;;;39.33;23.06;100387.77;102919;1263;97813;-76
2023/08/15 09:44:36;;;;;;;5.70;3.30;;;;;;;38.99;23.65;100381.13;102830;1260;137902;-78
2023/08/15 09:47:06;;;;;;;10.90;3.80;;;;;;;38.95;23.89;100386.30;102897;1261;102580;-75
2023/08/15 09:49:33;;;;;;;7.70;3.60;;;;;;;38.92;23.98;100384.95;102917;1259;97910;-74
2023/08/15 09:52:01;;;;;;;5.00;3.10;;;;;;;39.01;23.95;100382.27;103270;1258;137680;-76
2023/08/15 09:54:31;;;;;;;3.90;3.30;;;;;;;39.25;23.96;100382.15;102863;1259;97779;-76
2023/08/15 09:56:58;;;;;;;5.10;3.50;;;;;;;39.45;23.28;100381.13;102818;1263;137857;-78
2023/08/15 09:59:25;;;;;;;8.30;3.30;;;;;;;39.37;23.02;100379.89;103012;1262;98949;-75
2023/08/15 10:01:53;;;;;;;7.00;3.50;;;;;;;39.32;23.36;100389.64;102962;1259;97945;-76
2023/08/15 10:04:23;;;;;;;6.50;3.20;;;;;;;39.33;23.33;100382.52;102892;1263;137427;-74
2023/08/15 10:06:52;;;;;;;6.70;3.50;;;;;;;39.27;23.42;100377.23;102985;1264;99245;-73
2023/08/15 10:09:20;;;;;;;5.20;3.10;;;;;;;39.26;23.40;100374.65;102800;1259;138479;-73
2023/08/15 10:11:48;;;;;;;3.40;3.10;;;;;;;39.17;23.23;100375.67;102846;1261;100216;-72
2023/08/15 10:14:20;;;;;;;5.00;3.40;;;;;;;39.27;23.33;100375.32;102872;1262;138887;-76
2023/08/15 10:16:49;;;;;;;3.20;2.80;;;;;;;39.34;23.28;100372.23;103234;1259;99331;-79
2023/08/15 10:19:18;;;;;;;7.20;3.60;;;;;;;39.33;23.50;100367.34;102970;1259;97887;-80
2023/08/15 10:21:51;;;;;;;4.60;3.10;;;;;;;39.34;23.26;100369.13;102919;1259;137603;-77
2023/08/15 10:24:20;;;;;;;4.70;3.30;;;;;;;39.16;23.16;100371.16;103175;1259;100151;-78
2023/08/15 10:26:48;;;;;;;7.70;3.10;;;;;;;38.93;23.53;100364.48;102867;1260;138463;-77
2023/08/15 10:29:17;;;;;;;6.00;3.10;;;;;;;38.97;23.95;100368.36;103061;1260;100273;-77
2023/08/15 10:31:45;;;;;;;5.60;3.20;;;;;;;39.07;23.91;100366.71;102788;1259;99642;-76
2023/08/15 10:34:14;;;;;;;6.20;3.20;;;;;;;39.04;23.81;100362.43;102783;1259;138367;-77
2023/08/15 10:36:46;;;;;;;9.90;3.50;;;;;;;38.99;24.04;100359.36;102785;1260;99942;-77
2023/08/15 10:39:24;;;;;;;6.20;3.50;;;;;;;38.97;24.09;100360.39;102755;1259;138110;-77
2023/08/15 10:41:58;;;;;;;5.70;3.60;;;;;;;38.93;23.69;100349.52;102958;1260;107746;-77
2023/08/15 10:44:30;;;;;;;7.20;3.50;;;;;;;38.71;23.65;100350.81;102850;1259;137957;-76
2023/08/15 10:46:58;;;;;;;7.20;3.60;;;;;;;38.50;23.96;100359.50;103002;1259;103236;-77
2023/08/15 10:49:28;;;;;;;7.90;3.60;;;;;;;38.40;23.99;100357.89;102758;1264;108253;-72
2023/08/15 10:52:00;;;;;;;4.80;2.90;;;;;;;38.13;23.22;100358.63;102857;1260;137796;-76
2023/08/15 10:54:29;;;;;;;10.40;2.90;;;;;;;37.83;23.47;100359.73;104104;1258;99620;-76
2023/08/15 10:57:02;;;;;;;4.00;3.00;;;;;;;37.88;23.81;100354.17;102764;1264;137910;-74
2023/08/15 10:59:32;;;;;;;5.20;3.50;;;;;;;37.95;23.94;100356.52;103002;1258;102665;-72
2023/08/15 11:02:01;;;;;;;5.10;3.40;;;;;;;37.76;23.78;100361.72;102865;1262;100109;-73
2023/08/15 11:04:32;;;;;;;8.40;3.20;;;;;;;37.59;23.79;100364.55;102879;1259;97690;-73
2023/08/15 11:07:00;;;;;;;3.80;3.50;;;;;;;37.43;23.73;100360.00;102780;1261;101222;-74
2023/08/15 11:09:31;;;;;;;3.80;3.00;;;;;;;37.33;23.70;100354.97;102867;1259;137928;-73